< Typhoon 201423 2015 Season Typhoon 201502 >
Typhoon 201501 (MEKKHALA)
General InformationDetailed Track InformationTrack Information on Google MapsForecast History on Google MapsAccess Analytics MapList of All Images || NewsDisaster Info.WeblogTrackbackTyphoon FrontTwiphoonTyphoon Now!Typhoon ImaginationDisaster Info. XMLResourceGoogle EarthGE AnimationAtom FeedGeoJSON
Detalied Best Track Wind (Time Zone = UTC)
Year Month Day Hour Lat. Long. Wind (kt) Gust (kt) Direc. of Major Storm Axis Radius of Major Storm Axis (nm) Radius of Minor Storm Axis (nm) Direc. of Major Gale Axis Radius of Major Gale Axis (nm) Radius of Minor Gale Axis (nm) Image
2015 1 13 00 8.7 142.9 0 0 - - - - - - Image
2015 1 13 06 8.5 142.4 0 0 - - - - - - Image
2015 1 13 12 8.6 141.7 35 0 - - - N 210 150 Image
2015 1 13 18 9.2 140.7 35 0 - - - N 210 150 Image
2015 1 14 00 10.1 139.5 35 0 - - - N 180 150 Image
2015 1 14 06 10.3 138.4 35 0 - - - N 180 150 Image
2015 1 14 12 10.9 137.1 35 0 - - - N 180 150 Image
2015 1 14 18 11.3 135.6 35 0 - - - N 180 150 Image
2015 1 15 00 11.4 134.2 35 0 - - - N 180 150 Image
2015 1 15 06 11.6 133.2 35 0 - - - N 180 150 Image
2015 1 15 12 11.7 132.7 40 0 - - - N 180 150 Image
2015 1 15 18 11.6 131.7 40 0 - - - N 180 150 Image
2015 1 16 00 11.3 130.7 45 0 - - - N 210 150 Image
2015 1 16 06 11.3 129.3 50 0 - - - N 210 150 Image
2015 1 16 12 11.2 128.5 50 0 - - - N 210 150 Image
2015 1 16 18 11.0 127.5 60 0 symmetric 50 50 N 210 150 Image
2015 1 17 00 11.4 126.7 60 0 symmetric 50 50 N 210 150 Image
2015 1 17 06 11.9 126.0 60 0 symmetric 50 50 N 210 120 Image
2015 1 17 12 12.4 125.2 45 0 - - - N 210 120 Image
2015 1 17 18 12.7 124.3 40 0 - - - NE 210 120 Image
2015 1 18 00 13.5 123.6 35 0 - - - NE 180 90 Image
2015 1 18 06 13.9 122.9 35 0 - - - NE 150 90 Image
2015 1 18 12 14.8 122.6 35 0 - - - NE 150 90 Image
2015 1 18 18 16.0 122.5 0 0 - - - - - - Image
2015 1 19 00 16.6 122.8 0 0 - - - - - - Image
2015 1 19 06 16.8 123.1 0 0 - - - - - - Image
2015 1 19 12 16.8 123.3 0 0 - - - - - - Image
2015 1 19 18 16.8 123.9 0 0 - - - - - - Image
2015 1 20 00 16.8 124.4 0 0 - - - - - - Image
2015 1 20 06 16.9 124.7 0 0 - - - - - - Image
2015 1 20 12 17.0 125.0 0 0 - - - - - - Image
2015 1 20 18 17.3 125.2 0 0 - - - - - - Image
Japan Meteorological Agency Best Track Data | Correction Date : 2015-02-17
< Typhoon 201423 2015 Season Typhoon 201502 >

Help